KDVP

Details ICAO KDVP
Name SLAYTON MUNI
Region United States
Timezone America/Chicago (UTC-6.0)
Plans Departing 0
Arriving 0
Stats Elevation 1,623 ft / 495 m (AMSL)
Location 43.986477° -95.782222°
Runways 1
Magnetic Variation 2.304° E
Sunrise 2017-12-14 13:51:45 UTC / 2017-12-14 07:51:45 Local
Sunset 2017-12-14 22:46:55 UTC / 2017-12-14 16:46:55 Local
Advertisement - Login to hide

Runways

ID Width Length Bearing (true) Bearing (mag) Surface Threshold Offset Overrun Length
17 60 ft / 18 m 2,776 ft / 846 m 183.01° 180.71° Asphalt 0 ft / 0 m 0 ft / 0 m
35 60 ft / 18 m 2,776 ft / 846 m 3.01° 0.71° Asphalt 0 ft / 0 m 0 ft / 0 m

Map

Weather


0- 5 10 15 20 25 30 35+ Temperature / ° C

Clouds and Precipitation
Forecast for 2017-12-15 00:00 UTC. Updated 2 hours ago

Ground ~20,000 ft ~40,000 ft Winds

METAR

KDVP 150122Z AUTO 33009KT 10SM SCT012 OVC021 M04/M05 A3007 RMK AO2 T10371050

TAF

Not found

Frequencies

Recorded 118.55 MHz AWOS 3
Approach 132.05 MHz MINNEAPOLIS APP/DEP
Unicom 122.90 MHz CTAF
Warning: Do not use this data for real-world aviation or navigation. No guarantee of current accuracy is given.